sensor_id;sensor_type;location;lat;lon;timestamp;pressure;altitude;pressure_sealevel;temperature;humidity
65010;BME280;51556;50.002;22.014;2023-03-18T00:02:22;99731.45;;;4.39;43.22
65010;BME280;51556;50.002;22.014;2023-03-18T00:04:48;99724.77;;;4.28;42.95
65010;BME280;51556;50.002;22.014;2023-03-18T00:07:13;99720.72;;;4.24;43.08
65010;BME280;51556;50.002;22.014;2023-03-18T00:09:39;99721.78;;;4.25;43.33
65010;BME280;51556;50.002;22.014;2023-03-18T00:12:05;99722.64;;;4.23;43.49
65010;BME280;51556;50.002;22.014;2023-03-18T00:14:34;99723.84;;;4.20;43.52
65010;BME280;51556;50.002;22.014;2023-03-18T00:17:00;99720.65;;;4.14;43.53
65010;BME280;51556;50.002;22.014;2023-03-18T00:19:26;99721.16;;;4.09;43.71
65010;BME280;51556;50.002;22.014;2023-03-18T00:21:51;99717.66;;;4.05;44.42
65010;BME280;51556;50.002;22.014;2023-03-18T00:24:16;99715.38;;;4.02;44.08
65010;BME280;51556;50.002;22.014;2023-03-18T00:26:42;99715.01;;;3.98;43.99
65010;BME280;51556;50.002;22.014;2023-03-18T00:29:09;99716.70;;;3.94;44.24
65010;BME280;51556;50.002;22.014;2023-03-18T00:31:35;99714.23;;;3.90;44.31
65010;BME280;51556;50.002;22.014;2023-03-18T00:34:01;99714.98;;;3.94;44.36
65010;BME280;51556;50.002;22.014;2023-03-18T00:36:26;99716.69;;;3.91;44.38
65010;BME280;51556;50.002;22.014;2023-03-18T00:38:53;99719.31;;;3.92;44.63
65010;BME280;51556;50.002;22.014;2023-03-18T00:41:29;99718.11;;;3.95;44.31
65010;BME280;51556;50.002;22.014;2023-03-18T00:43:57;99712.70;;;3.91;44.38
65010;BME280;51556;50.002;22.014;2023-03-18T00:46:25;99709.73;;;3.90;44.34
65010;BME280;51556;50.002;22.014;2023-03-18T00:48:53;99710.35;;;3.83;44.72
65010;BME280;51556;50.002;22.014;2023-03-18T00:51:20;99709.78;;;3.76;44.90
65010;BME280;51556;50.002;22.014;2023-03-18T00:53:52;99712.57;;;3.76;44.91
65010;BME280;51556;50.002;22.014;2023-03-18T00:56:20;99711.19;;;3.78;44.90
65010;BME280;51556;50.002;22.014;2023-03-18T00:58:47;99704.60;;;3.82;44.72
65010;BME280;51556;50.002;22.014;2023-03-18T01:01:13;99706.95;;;3.91;44.83
65010;BME280;51556;50.002;22.014;2023-03-18T01:03:40;99708.00;;;3.94;44.91
65010;BME280;51556;50.002;22.014;2023-03-18T01:06:07;99705.77;;;3.96;44.53
65010;BME280;51556;50.002;22.014;2023-03-18T01:08:34;99704.89;;;3.97;44.53
65010;BME280;51556;50.002;22.014;2023-03-18T01:11:00;99699.86;;;3.99;44.44
65010;BME280;51556;50.002;22.014;2023-03-18T01:13:26;99702.31;;;4.02;45.11
65010;BME280;51556;50.002;22.014;2023-03-18T01:15:52;99698.82;;;4.00;44.88
65010;BME280;51556;50.002;22.014;2023-03-18T01:18:19;99695.84;;;3.96;45.65
65010;BME280;51556;50.002;22.014;2023-03-18T01:20:44;99694.21;;;3.89;45.68
65010;BME280;51556;50.002;22.014;2023-03-18T01:23:10;99695.20;;;3.82;45.59
65010;BME280;51556;50.002;22.014;2023-03-18T01:25:36;99689.40;;;3.75;46.29
65010;BME280;51556;50.002;22.014;2023-03-18T01:28:03;99687.29;;;3.72;45.86
65010;BME280;51556;50.002;22.014;2023-03-18T01:30:30;99686.42;;;3.69;45.48
65010;BME280;51556;50.002;22.014;2023-03-18T01:32:56;99686.42;;;3.72;45.77
65010;BME280;51556;50.002;22.014;2023-03-18T01:35:22;99684.52;;;3.73;45.63
65010;BME280;51556;50.002;22.014;2023-03-18T01:37:48;99683.98;;;3.73;45.34
65010;BME280;51556;50.002;22.014;2023-03-18T01:40:14;99681.73;;;3.72;45.81
65010;BME280;51556;50.002;22.014;2023-03-18T01:42:41;99678.59;;;3.70;45.88
65010;BME280;51556;50.002;22.014;2023-03-18T01:47:46;99675.40;;;3.62;46.01
65010;BME280;51556;50.002;22.014;2023-03-18T01:50:14;99672.98;;;3.63;45.70
65010;BME280;51556;50.002;22.014;2023-03-18T01:52:41;99672.79;;;3.62;45.81
65010;BME280;51556;50.002;22.014;2023-03-18T01:55:19;99669.13;;;3.61;45.58
65010;BME280;51556;50.002;22.014;2023-03-18T01:57:47;99671.03;;;3.60;45.80
65010;BME280;51556;50.002;22.014;2023-03-18T02:00:14;99668.59;;;3.59;45.98
65010;BME280;51556;50.002;22.014;2023-03-18T02:02:43;99661.11;;;3.60;45.90
65010;BME280;51556;50.002;22.014;2023-03-18T02:05:11;99661.96;;;3.58;45.80
65010;BME280;51556;50.002;22.014;2023-03-18T02:07:40;99657.92;;;3.54;45.75
65010;BME280;51556;50.002;22.014;2023-03-18T02:10:24;99654.79;;;3.53;45.74
65010;BME280;51556;50.002;22.014;2023-03-18T02:12:57;99650.98;;;3.55;45.49
65010;BME280;51556;50.002;22.014;2023-03-18T02:15:25;99642.98;;;3.57;45.52
65010;BME280;51556;50.002;22.014;2023-03-18T02:18:20;99651.66;;;3.54;45.53
65010;BME280;51556;50.002;22.014;2023-03-18T02:23:40;99653.02;;;3.51;45.45
65010;BME280;51556;50.002;22.014;2023-03-18T02:26:24;99658.72;;;3.45;45.48
65010;BME280;51556;50.002;22.014;2023-03-18T02:28:55;99660.41;;;3.39;45.60
65010;BME280;51556;50.002;22.014;2023-03-18T02:31:22;99662.68;;;3.40;45.32
65010;BME280;51556;50.002;22.014;2023-03-18T02:33:49;99664.63;;;3.45;45.50
65010;BME280;51556;50.002;22.014;2023-03-18T02:36:20;99663.98;;;3.49;45.36
65010;BME280;51556;50.002;22.014;2023-03-18T02:38:47;99661.20;;;3.50;45.71
65010;BME280;51556;50.002;22.014;2023-03-18T02:41:23;99665.20;;;3.50;45.39
65010;BME280;51556;50.002;22.014;2023-03-18T02:43:49;99667.51;;;3.54;45.62
65010;BME280;51556;50.002;22.014;2023-03-18T02:46:28;99665.95;;;3.55;45.57
65010;BME280;51556;50.002;22.014;2023-03-18T02:48:56;99666.29;;;3.55;45.60
65010;BME280;51556;50.002;22.014;2023-03-18T02:51:23;99668.75;;;3.58;45.45
65010;BME280;51556;50.002;22.014;2023-03-18T02:53:49;99667.35;;;3.57;45.37
65010;BME280;51556;50.002;22.014;2023-03-18T02:56:15;99666.30;;;3.56;44.95
65010;BME280;51556;50.002;22.014;2023-03-18T02:58:40;99663.53;;;3.58;45.25
65010;BME280;51556;50.002;22.014;2023-03-18T03:01:06;99666.80;;;3.53;45.32
65010;BME280;51556;50.002;22.014;2023-03-18T03:03:33;99665.60;;;3.55;45.28
65010;BME280;51556;50.002;22.014;2023-03-18T03:05:59;99668.02;;;3.55;45.38
65010;BME280;51556;50.002;22.014;2023-03-18T03:08:26;99669.76;;;3.53;45.50
65010;BME280;51556;50.002;22.014;2023-03-18T03:10:51;99668.54;;;3.53;45.39
65010;BME280;51556;50.002;22.014;2023-03-18T03:13:18;99668.88;;;3.52;45.51
65010;BME280;51556;50.002;22.014;2023-03-18T03:15:43;99666.29;;;3.54;45.38
65010;BME280;51556;50.002;22.014;2023-03-18T03:18:09;99661.29;;;3.59;45.21
65010;BME280;51556;50.002;22.014;2023-03-18T03:20:36;99667.89;;;3.58;45.12
65010;BME280;51556;50.002;22.014;2023-03-18T03:23:07;99669.45;;;3.59;45.03
65010;BME280;51556;50.002;22.014;2023-03-18T03:25:34;99669.09;;;3.57;45.29
65010;BME280;51556;50.002;22.014;2023-03-18T03:28:00;99669.95;;;3.54;44.94
65010;BME280;51556;50.002;22.014;2023-03-18T03:30:27;99673.91;;;3.50;45.40
65010;BME280;51556;50.002;22.014;2023-03-18T03:32:52;99669.69;;;3.46;45.41
65010;BME280;51556;50.002;22.014;2023-03-18T03:35:18;99675.23;;;3.43;45.41
65010;BME280;51556;50.002;22.014;2023-03-18T03:37:44;99674.35;;;3.42;45.56
65010;BME280;51556;50.002;22.014;2023-03-18T03:40:12;99675.38;;;3.40;45.59
65010;BME280;51556;50.002;22.014;2023-03-18T03:42:39;99674.33;;;3.38;45.44
65010;BME280;51556;50.002;22.014;2023-03-18T03:45:05;99673.42;;;3.31;45.52
65010;BME280;51556;50.002;22.014;2023-03-18T03:47:31;99674.80;;;3.30;45.69
65010;BME280;51556;50.002;22.014;2023-03-18T03:49:57;99674.97;;;3.29;45.64
65010;BME280;51556;50.002;22.014;2023-03-18T03:52:23;99672.38;;;3.31;45.45
65010;BME280;51556;50.002;22.014;2023-03-18T03:54:49;99674.95;;;3.27;45.59
65010;BME280;51556;50.002;22.014;2023-03-18T03:57:16;99678.10;;;3.29;45.84
65010;BME280;51556;50.002;22.014;2023-03-18T03:59:41;99680.90;;;3.30;46.13
65010;BME280;51556;50.002;22.014;2023-03-18T04:02:07;99677.36;;;3.25;45.80
65010;BME280;51556;50.002;22.014;2023-03-18T04:04:33;99676.48;;;3.24;46.21
65010;BME280;51556;50.002;22.014;2023-03-18T04:06:59;99683.27;;;3.24;46.34
65010;BME280;51556;50.002;22.014;2023-03-18T04:09:24;99688.30;;;3.22;46.20
65010;BME280;51556;50.002;22.014;2023-03-18T04:11:50;99687.05;;;3.20;46.07
65010;BME280;51556;50.002;22.014;2023-03-18T04:14:15;99686.22;;;3.23;46.41
65010;BME280;51556;50.002;22.014;2023-03-18T04:16:41;99686.41;;;3.24;46.26
65010;BME280;51556;50.002;22.014;2023-03-18T04:19:09;99688.86;;;3.26;46.43
65010;BME280;51556;50.002;22.014;2023-03-18T04:21:34;99686.77;;;3.27;46.33
65010;BME280;51556;50.002;22.014;2023-03-18T04:24:01;99684.38;;;3.32;46.16
65010;BME280;51556;50.002;22.014;2023-03-18T04:26:28;99681.96;;;3.34;45.88
65010;BME280;51556;50.002;22.014;2023-03-18T04:28:55;99681.55;;;3.27;45.81
65010;BME280;51556;50.002;22.014;2023-03-18T04:31:21;99688.42;;;3.17;46.13
65010;BME280;51556;50.002;22.014;2023-03-18T04:33:47;99688.38;;;3.13;46.17
65010;BME280;51556;50.002;22.014;2023-03-18T04:36:12;99686.27;;;3.11;46.42
65010;BME280;51556;50.002;22.014;2023-03-18T04:38:38;99684.87;;;3.10;46.56
65010;BME280;51556;50.002;22.014;2023-03-18T04:41:04;99686.63;;;3.12;46.55
65010;BME280;51556;50.002;22.014;2023-03-18T04:43:31;99687.88;;;3.16;46.49
65010;BME280;51556;50.002;22.014;2023-03-18T04:45:56;99687.53;;;3.15;46.67
65010;BME280;51556;50.002;22.014;2023-03-18T04:48:22;99688.40;;;3.16;46.55
65010;BME280;51556;50.002;22.014;2023-03-18T04:50:48;99692.08;;;3.18;46.65
65010;BME280;51556;50.002;22.014;2023-03-18T04:53:14;99695.05;;;3.19;46.79
65010;BME280;51556;50.002;22.014;2023-03-18T04:55:40;99691.11;;;3.25;46.87
65010;BME280;51556;50.002;22.014;2023-03-18T04:58:05;99686.82;;;3.31;46.59
65010;BME280;51556;50.002;22.014;2023-03-18T05:00:31;99686.48;;;3.33;46.73
65010;BME280;51556;50.002;22.014;2023-03-18T05:02:57;99686.30;;;3.32;46.53
65010;BME280;51556;50.002;22.014;2023-03-18T05:05:22;99686.29;;;3.31;46.61
65010;BME280;51556;50.002;22.014;2023-03-18T05:07:48;99688.38;;;3.30;46.79
65010;BME280;51556;50.002;22.014;2023-03-18T05:10:14;99692.36;;;3.28;46.76
65010;BME280;51556;50.002;22.014;2023-03-18T05:12:40;99689.90;;;3.26;46.72
65010;BME280;51556;50.002;22.014;2023-03-18T05:15:06;99692.84;;;3.24;46.87
65010;BME280;51556;50.002;22.014;2023-03-18T05:17:32;99689.92;;;3.28;46.86
65010;BME280;51556;50.002;22.014;2023-03-18T05:19:57;99693.61;;;3.32;46.85
65010;BME280;51556;50.002;22.014;2023-03-18T05:22:23;99695.18;;;3.34;47.07
65010;BME280;51556;50.002;22.014;2023-03-18T05:24:49;99694.87;;;3.40;46.80
65010;BME280;51556;50.002;22.014;2023-03-18T05:27:16;99699.73;;;3.40;46.40
65010;BME280;51556;50.002;22.014;2023-03-18T05:29:42;99698.02;;;3.41;46.78
65010;BME280;51556;50.002;22.014;2023-03-18T05:32:09;99697.86;;;3.44;46.58
65010;BME280;51556;50.002;22.014;2023-03-18T05:34:37;99696.52;;;3.49;46.70
65010;BME280;51556;50.002;22.014;2023-03-18T05:37:04;99695.85;;;3.51;46.60
65010;BME280;51556;50.002;22.014;2023-03-18T05:39:30;99697.96;;;3.54;46.69
65010;BME280;51556;50.002;22.014;2023-03-18T05:41:56;99702.15;;;3.55;46.48
65010;BME280;51556;50.002;22.014;2023-03-18T05:44:22;99702.37;;;3.60;46.79
65010;BME280;51556;50.002;22.014;2023-03-18T05:46:48;99703.47;;;3.67;46.97
65010;BME280;51556;50.002;22.014;2023-03-18T05:49:16;99702.28;;;3.75;46.46
65010;BME280;51556;50.002;22.014;2023-03-18T05:51:42;99703.39;;;3.81;46.68
65010;BME280;51556;50.002;22.014;2023-03-18T05:54:09;99699.73;;;3.81;46.09
65010;BME280;51556;50.002;22.014;2023-03-18T05:56:35;99697.05;;;3.72;46.10
65010;BME280;51556;50.002;22.014;2023-03-18T05:59:00;99697.90;;;3.66;46.53
65010;BME280;51556;50.002;22.014;2023-03-18T06:01:27;99698.90;;;3.62;46.30
65010;BME280;51556;50.002;22.014;2023-03-18T06:03:55;99698.70;;;3.59;46.69
65010;BME280;51556;50.002;22.014;2023-03-18T06:06:20;99695.83;;;3.50;46.76
65010;BME280;51556;50.002;22.014;2023-03-18T06:08:46;99698.24;;;3.47;46.51
65010;BME280;51556;50.002;22.014;2023-03-18T06:11:12;99703.84;;;3.50;47.14
65010;BME280;51556;50.002;22.014;2023-03-18T06:13:38;99700.70;;;3.50;46.63
65010;BME280;51556;50.002;22.014;2023-03-18T06:16:04;99700.21;;;3.53;46.74
65010;BME280;51556;50.002;22.014;2023-03-18T06:18:30;99703.43;;;3.62;47.30
65010;BME280;51556;50.002;22.014;2023-03-18T06:20:55;99699.13;;;3.69;46.72
65010;BME280;51556;50.002;22.014;2023-03-18T06:23:21;99696.56;;;3.78;46.74
65010;BME280;51556;50.002;22.014;2023-03-18T06:25:47;99694.17;;;3.84;46.81
65010;BME280;51556;50.002;22.014;2023-03-18T06:28:14;99693.73;;;3.96;46.55
65010;BME280;51556;50.002;22.014;2023-03-18T06:30:39;99693.62;;;4.06;46.79
65010;BME280;51556;50.002;22.014;2023-03-18T06:33:05;99696.27;;;4.17;46.43
65010;BME280;51556;50.002;22.014;2023-03-18T06:35:31;99693.53;;;4.24;46.01
65010;BME280;51556;50.002;22.014;2023-03-18T06:37:56;99694.27;;;4.30;46.39
65010;BME280;51556;50.002;22.014;2023-03-18T06:40:22;99695.87;;;4.36;45.95
65010;BME280;51556;50.002;22.014;2023-03-18T06:42:49;99696.05;;;4.37;45.97
65010;BME280;51556;50.002;22.014;2023-03-18T06:45:14;99695.87;;;4.35;46.12
65010;BME280;51556;50.002;22.014;2023-03-18T06:47:41;99691.67;;;4.33;45.88
65010;BME280;51556;50.002;22.014;2023-03-18T06:50:07;99695.14;;;4.30;46.21
65010;BME280;51556;50.002;22.014;2023-03-18T06:52:33;99695.87;;;4.36;45.94
65010;BME280;51556;50.002;22.014;2023-03-18T06:54:59;99698.34;;;4.42;45.97
65010;BME280;51556;50.002;22.014;2023-03-18T06:57:24;99697.30;;;4.42;45.93
65010;BME280;51556;50.002;22.014;2023-03-18T06:59:51;99697.66;;;4.46;45.50
65010;BME280;51556;50.002;22.014;2023-03-18T07:02:18;99696.64;;;4.54;45.82
65010;BME280;51556;50.002;22.014;2023-03-18T07:04:43;99690.74;;;4.62;45.71
65010;BME280;51556;50.002;22.014;2023-03-18T07:07:09;99687.83;;;4.75;45.66
65010;BME280;51556;50.002;22.014;2023-03-18T07:09:35;99689.06;;;4.87;45.34
65010;BME280;51556;50.002;22.014;2023-03-18T07:12:01;99689.25;;;4.91;44.76
65010;BME280;51556;50.002;22.014;2023-03-18T07:14:27;99685.77;;;4.94;44.37
65010;BME280;51556;50.002;22.014;2023-03-18T07:16:53;99685.09;;;4.97;44.66
65010;BME280;51556;50.002;22.014;2023-03-18T07:19:19;99687.71;;;5.03;44.65
65010;BME280;51556;50.002;22.014;2023-03-18T07:21:45;99685.11;;;5.11;44.47
65010;BME280;51556;50.002;22.014;2023-03-18T07:24:11;99684.42;;;5.18;44.15
65010;BME280;51556;50.002;22.014;2023-03-18T07:26:37;99679.71;;;5.28;43.89
65010;BME280;51556;50.002;22.014;2023-03-18T07:29:03;99681.46;;;5.35;44.18
65010;BME280;51556;50.002;22.014;2023-03-18T07:31:28;99684.61;;;5.43;44.11
65010;BME280;51556;50.002;22.014;2023-03-18T07:33:55;99687.23;;;5.48;44.10
65010;BME280;51556;50.002;22.014;2023-03-18T07:36:22;99686.89;;;5.56;44.25
65010;BME280;51556;50.002;22.014;2023-03-18T07:38:47;99691.23;;;5.67;44.22
65010;BME280;51556;50.002;22.014;2023-03-18T07:41:13;99687.22;;;5.80;43.62
65010;BME280;51556;50.002;22.014;2023-03-18T07:43:38;99683.20;;;5.87;43.18
65010;BME280;51556;50.002;22.014;2023-03-18T07:46:05;99688.60;;;5.97;43.06
65010;BME280;51556;50.002;22.014;2023-03-18T07:48:30;99689.98;;;6.07;42.73
65010;BME280;51556;50.002;22.014;2023-03-18T07:50:58;99691.91;;;6.15;42.63
65010;BME280;51556;50.002;22.014;2023-03-18T07:53:24;99691.54;;;6.22;42.96
65010;BME280;51556;50.002;22.014;2023-03-18T07:55:50;99689.58;;;6.32;42.84
65010;BME280;51556;50.002;22.014;2023-03-18T07:58:15;99692.15;;;6.46;42.67
65010;BME280;51556;50.002;22.014;2023-03-18T08:00:41;99695.78;;;6.58;42.35
65010;BME280;51556;50.002;22.014;2023-03-18T08:03:07;99691.17;;;6.68;42.14
65010;BME280;51556;50.002;22.014;2023-03-18T08:05:33;99693.04;;;6.81;41.49
65010;BME280;51556;50.002;22.014;2023-03-18T08:07:58;99694.39;;;6.91;41.56
65010;BME280;51556;50.002;22.014;2023-03-18T08:10:26;99695.92;;;7.01;41.36
65010;BME280;51556;50.002;22.014;2023-03-18T08:12:53;99691.27;;;7.12;39.38
65010;BME280;51556;50.002;22.014;2023-03-18T08:15:18;99688.25;;;7.21;38.99
65010;BME280;51556;50.002;22.014;2023-03-18T08:17:44;99685.39;;;7.31;38.25
65010;BME280;51556;50.002;22.014;2023-03-18T08:20:10;99687.91;;;7.44;38.44
65010;BME280;51556;50.002;22.014;2023-03-18T08:22:36;99689.92;;;7.54;37.62
65010;BME280;51556;50.002;22.014;2023-03-18T08:25:02;99691.80;;;7.62;37.40
65010;BME280;51556;50.002;22.014;2023-03-18T08:27:27;99693.13;;;7.71;37.54
65010;BME280;51556;50.002;22.014;2023-03-18T08:29:53;99693.44;;;7.76;37.36
65010;BME280;51556;50.002;22.014;2023-03-18T08:32:18;99690.35;;;7.84;37.00
65010;BME280;51556;50.002;22.014;2023-03-18T08:34:44;99690.61;;;7.94;37.43
65010;BME280;51556;50.002;22.014;2023-03-18T08:37:10;99690.04;;;8.01;36.11
65010;BME280;51556;50.002;22.014;2023-03-18T08:39:36;99692.60;;;8.09;36.45
65010;BME280;51556;50.002;22.014;2023-03-18T08:42:02;99691.64;;;8.16;35.85
65010;BME280;51556;50.002;22.014;2023-03-18T08:44:28;99691.17;;;8.24;36.73
65010;BME280;51556;50.002;22.014;2023-03-18T08:46:55;99692.14;;;8.36;36.50
65010;BME280;51556;50.002;22.014;2023-03-18T08:49:29;99690.98;;;8.46;36.03
65010;BME280;51556;50.002;22.014;2023-03-18T08:51:55;99686.16;;;8.53;35.36
65010;BME280;51556;50.002;22.014;2023-03-18T08:54:20;99680.58;;;8.63;35.88
65010;BME280;51556;50.002;22.014;2023-03-18T08:56:46;99684.68;;;8.72;35.87
65010;BME280;51556;50.002;22.014;2023-03-18T08:59:12;99679.63;;;8.83;35.99
65010;BME280;51556;50.002;22.014;2023-03-18T09:01:38;99683.65;;;8.95;35.96
65010;BME280;51556;50.002;22.014;2023-03-18T09:04:03;99678.95;;;9.05;35.09
65010;BME280;51556;50.002;22.014;2023-03-18T09:06:29;99677.77;;;9.14;34.35
65010;BME280;51556;50.002;22.014;2023-03-18T09:08:55;99675.25;;;9.19;33.43
65010;BME280;51556;50.002;22.014;2023-03-18T09:11:21;99676.73;;;9.26;33.38
65010;BME280;51556;50.002;22.014;2023-03-18T09:13:46;99674.52;;;9.30;33.32
65010;BME280;51556;50.002;22.014;2023-03-18T09:16:12;99678.30;;;9.37;32.63
65010;BME280;51556;50.002;22.014;2023-03-18T09:18:37;99673.48;;;9.42;33.09
65010;BME280;51556;50.002;22.014;2023-03-18T09:21:04;99670.73;;;9.49;32.58
65010;BME280;51556;50.002;22.014;2023-03-18T09:23:30;99674.23;;;9.51;32.46
65010;BME280;51556;50.002;22.014;2023-03-18T09:25:56;99669.17;;;9.59;32.87
65010;BME280;51556;50.002;22.014;2023-03-18T09:28:21;99667.27;;;9.67;31.51
65010;BME280;51556;50.002;22.014;2023-03-18T09:30:48;99665.00;;;9.76;32.33
65010;BME280;51556;50.002;22.014;2023-03-18T09:33:14;99667.44;;;9.87;32.81
65010;BME280;51556;50.002;22.014;2023-03-18T09:35:40;99669.72;;;9.98;31.78
65010;BME280;51556;50.002;22.014;2023-03-18T09:38:08;99662.87;;;10.05;32.16
65010;BME280;51556;50.002;22.014;2023-03-18T09:40:37;99667.95;;;10.16;31.50
65010;BME280;51556;50.002;22.014;2023-03-18T09:48:39;99661.23;;;10.38;32.06
65010;BME280;51556;50.002;22.014;2023-03-18T09:51:56;99657.29;;;10.50;31.73
65010;BME280;51556;50.002;22.014;2023-03-18T09:54:35;99660.42;;;10.60;30.63
65010;BME280;51556;50.002;22.014;2023-03-18T09:57:04;99657.99;;;10.67;30.70
65010;BME280;51556;50.002;22.014;2023-03-18T09:59:46;99658.77;;;10.73;30.66
65010;BME280;51556;50.002;22.014;2023-03-18T10:02:22;99657.46;;;10.83;30.82
65010;BME280;51556;50.002;22.014;2023-03-18T10:05:03;99656.66;;;10.95;30.48
65010;BME280;51556;50.002;22.014;2023-03-18T10:07:39;99659.86;;;11.02;30.33
65010;BME280;51556;50.002;22.014;2023-03-18T10:10:15;99654.09;;;11.15;31.17
65010;BME280;51556;50.002;22.014;2023-03-18T10:12:54;99655.48;;;11.30;29.81
65010;BME280;51556;50.002;22.014;2023-03-18T10:15:35;99651.97;;;11.30;28.91
65010;BME280;51556;50.002;22.014;2023-03-18T10:18:11;99651.46;;;11.29;29.32
65010;BME280;51556;50.002;22.014;2023-03-18T10:24:18;99642.64;;;11.46;29.65
65010;BME280;51556;50.002;22.014;2023-03-18T10:27:02;99643.74;;;11.63;30.18
65010;BME280;51556;50.002;22.014;2023-03-18T10:29:40;99640.06;;;11.78;29.60
65010;BME280;51556;50.002;22.014;2023-03-18T10:32:44;99637.63;;;11.89;29.22
65010;BME280;51556;50.002;22.014;2023-03-18T10:40:47;99637.55;;;12.31;29.10
65010;BME280;51556;50.002;22.014;2023-03-18T10:43:22;99628.77;;;12.42;29.64
65010;BME280;51556;50.002;22.014;2023-03-18T10:45:57;99633.38;;;12.54;29.12
65010;BME280;51556;50.002;22.014;2023-03-18T10:48:30;99625.88;;;12.67;29.22
65010;BME280;51556;50.002;22.014;2023-03-18T10:56:03;99626.27;;;12.96;27.34
65010;BME280;51556;50.002;22.014;2023-03-18T10:58:30;99625.60;;;13.05;28.12
65010;BME280;51556;50.002;22.014;2023-03-18T11:00:56;99618.92;;;13.16;27.95
65010;BME280;51556;50.002;22.014;2023-03-18T11:06:05;99611.14;;;13.60;28.34
65010;BME280;51556;50.002;22.014;2023-03-18T11:08:38;99613.60;;;13.75;26.71
65010;BME280;51556;50.002;22.014;2023-03-18T11:16:46;99600.47;;;14.07;26.80
65010;BME280;51556;50.002;22.014;2023-03-18T11:19:38;99599.71;;;14.13;26.64
65010;BME280;51556;50.002;22.014;2023-03-18T11:24:35;99601.73;;;14.30;25.07
65010;BME280;51556;50.002;22.014;2023-03-18T11:30:36;99590.28;;;14.52;25.70
65010;BME280;51556;50.002;22.014;2023-03-18T11:35:52;99584.98;;;14.80;25.43
65010;BME280;51556;50.002;22.014;2023-03-18T11:38:31;99579.52;;;14.88;25.36
65010;BME280;51556;50.002;22.014;2023-03-18T11:41:23;99578.85;;;15.00;25.28
65010;BME280;51556;50.002;22.014;2023-03-18T11:46:22;99571.41;;;15.09;24.61
65010;BME280;51556;50.002;22.014;2023-03-18T11:48:48;99564.44;;;15.10;24.44
65010;BME280;51556;50.002;22.014;2023-03-18T11:54:23;99563.04;;;15.22;24.44
65010;BME280;51556;50.002;22.014;2023-03-18T11:57:17;99563.85;;;15.41;24.50
65010;BME280;51556;50.002;22.014;2023-03-18T12:00:11;99565.98;;;15.59;24.35
65010;BME280;51556;50.002;22.014;2023-03-18T12:08:11;99550.77;;;16.30;23.31
65010;BME280;51556;50.002;22.014;2023-03-18T12:13:48;99552.42;;;16.55;23.12
65010;BME280;51556;50.002;22.014;2023-03-18T12:16:38;99550.67;;;16.66;22.33
65010;BME280;51556;50.002;22.014;2023-03-18T12:22:04;99551.30;;;17.19;21.83
65010;BME280;51556;50.002;22.014;2023-03-18T12:24:49;99548.73;;;17.52;21.38
65010;BME280;51556;50.002;22.014;2023-03-18T12:27:39;99546.95;;;18.00;20.88
65010;BME280;51556;50.002;22.014;2023-03-18T12:33:25;99547.82;;;19.10;20.42
65010;BME280;51556;50.002;22.014;2023-03-18T12:36:05;99545.14;;;19.45;20.65
65010;BME280;51556;50.002;22.014;2023-03-18T12:44:46;99533.94;;;20.46;19.41
65010;BME280;51556;50.002;22.014;2023-03-18T12:47:22;99531.86;;;20.73;19.23
65010;BME280;51556;50.002;22.014;2023-03-18T12:50:00;99533.52;;;21.02;18.39
65010;BME280;51556;50.002;22.014;2023-03-18T12:52:40;99528.40;;;21.31;18.30
65010;BME280;51556;50.002;22.014;2023-03-18T12:58:00;99526.35;;;21.92;17.49
65010;BME280;51556;50.002;22.014;2023-03-18T13:00:38;99525.01;;;22.22;16.89
65010;BME280;51556;50.002;22.014;2023-03-18T13:03:28;99519.98;;;22.42;16.94
65010;BME280;51556;50.002;22.014;2023-03-18T13:06:01;99518.09;;;22.36;16.98
65010;BME280;51556;50.002;22.014;2023-03-18T13:11:17;99520.56;;;22.39;16.54
65010;BME280;51556;50.002;22.014;2023-03-18T13:13:53;99523.00;;;22.72;17.20
65010;BME280;51556;50.002;22.014;2023-03-18T13:16:21;99519.33;;;23.00;16.00
65010;BME280;51556;50.002;22.014;2023-03-18T13:18:51;99514.75;;;23.16;16.30
65010;BME280;51556;50.002;22.014;2023-03-18T13:21:24;99515.30;;;23.49;15.58
65010;BME280;51556;50.002;22.014;2023-03-18T13:29:44;99520.22;;;23.50;15.38
65010;BME280;51556;50.002;22.014;2023-03-18T13:33:05;99513.91;;;23.55;15.39
65010;BME280;51556;50.002;22.014;2023-03-18T13:38:27;99514.66;;;24.01;14.87
65010;BME280;51556;50.002;22.014;2023-03-18T13:44:27;99501.25;;;24.59;14.94
65010;BME280;51556;50.002;22.014;2023-03-18T13:53:50;99496.52;;;25.19;13.73
65010;BME280;51556;50.002;22.014;2023-03-18T13:59:45;99495.35;;;25.26;13.56
65010;BME280;51556;50.002;22.014;2023-03-18T14:03:34;99490.71;;;25.34;13.77
65010;BME280;51556;50.002;22.014;2023-03-18T14:12:52;99491.16;;;24.35;14.37
65010;BME280;51556;50.002;22.014;2023-03-18T14:16:01;99488.38;;;23.79;14.07
65010;BME280;51556;50.002;22.014;2023-03-18T14:22:06;99480.48;;;23.58;15.27
65010;BME280;51556;50.002;22.014;2023-03-18T14:24:33;99479.35;;;23.61;15.15
65010;BME280;51556;50.002;22.014;2023-03-18T14:27:17;99474.41;;;23.57;15.04
65010;BME280;51556;50.002;22.014;2023-03-18T14:29:53;99474.08;;;23.50;14.98
65010;BME280;51556;50.002;22.014;2023-03-18T14:32:35;99479.02;;;23.27;14.92
65010;BME280;51556;50.002;22.014;2023-03-18T14:39:02;99469.61;;;22.78;15.24
65010;BME280;51556;50.002;22.014;2023-03-18T14:45:31;99466.10;;;23.11;14.99
65010;BME280;51556;50.002;22.014;2023-03-18T14:50:52;99461.39;;;22.90;14.72
65010;BME280;51556;50.002;22.014;2023-03-18T14:56:04;99462.65;;;22.88;15.22
65010;BME280;51556;50.002;22.014;2023-03-18T15:01:45;99461.88;;;22.44;14.41
65010;BME280;51556;50.002;22.014;2023-03-18T15:04:24;99458.02;;;21.90;15.07
65010;BME280;51556;50.002;22.014;2023-03-18T15:06:51;99461.84;;;21.49;15.81
65010;BME280;51556;50.002;22.014;2023-03-18T15:09:22;99461.17;;;21.11;15.58
65010;BME280;51556;50.002;22.014;2023-03-18T15:11:49;99458.50;;;20.62;15.99
65010;BME280;51556;50.002;22.014;2023-03-18T15:14:23;99460.02;;;20.13;16.76